Latest Coastal Weather Observations for Geraldton Airport

IDW60701

Issued at 11:13 am WST Saturday 5 December 2020 (issued every 10 minutes, with the page automatically refreshed every 10 minutes)

About coastal observations | Map of coastal stations | Coastal observations for WA | Marine services | Other Formats
Station Details ID: 008315 Name: GERALDTON AIRPORT Lat: -28.80 Lon: 114.70 Height: 29.7 m
Data from the previous 72 hours. | See also: Recent months at Geraldton Airport
Date/Time
WST
Wind Sea
Height
m
Swell Vis
km
Cloud Weather Temp
°C
Press
MSL
hPa
Rain since
9am
mm
Dir  Spd
kts
Gust
kts
Height
m
Period
s
Dir
05/11:00am S 17 25 - - - - 10 Clear - 22.9 1018.1 0.0
05/10:30am S 17 25 - - - - 10 - - 22.9 1018.5 0.0
05/10:00am S 16 23 - - - - 10 - - 23.1 1018.7 0.0
05/09:30am SSE 15 21 - - - - 10 - - 22.0 1019.1 0.0
05/09:00am SSE 17 24 - - - - 10 - - 21.9 1019.5 0.0
05/08:30am SSE 17 22 - - - - 10 - - 20.8 1019.5 0.0
05/08:00am SSE 17 25 - - - - 10 Partly cloudy - 20.2 1019.6 0.0
05/07:30am SE 16 22 - - - - 10 Cloudy - 20.1 1019.7 0.0
05/07:00am SE 18 24 - - - - 10 Cloudy - 19.4 1019.3 0.0
05/06:30am SE 15 19 - - - - 10 Cloudy - 19.0 1019.1 0.0
05/06:00am SE 12 16 - - - - 10 Cloudy - 18.3 1018.9 0.0
05/05:30am SE 7 9 - - - - 10 Cloudy - 17.0 1018.7 0.0
05/05:00am SE 9 11 - - - - 10 Partly cloudy - 16.3 1018.6 0.0
05/04:30am SE 8 11 - - - - 10 Cloudy - 17.1 1018.2 0.0
05/04:00am SE 7 8 - - - - 10 Partly cloudy - 16.0 1018.0 0.0
05/03:30am ESE 6 7 - - - - 10 - - 14.7 1017.8 0.0
05/03:00am SE 9 12 - - - - 10 Mostly clear - 16.0 1017.7 0.0
05/02:30am SE 12 15 - - - - 10 Cloudy - 17.3 1017.5 0.0
05/02:00am SE 13 16 - - - - 10 Cloudy - 18.2 1017.6 0.0
05/01:30am SE 11 15 - - - - 10 Cloudy - 18.4 1017.6 0.0
05/01:00am SE 10 14 - - - - 10 Cloudy - 18.5 1017.8 0.0
05/12:30am SE 8 11 - - - - 10 Partly cloudy - 18.7 1017.7 0.0
05/12:00am SE 12 15 - - - - 10 Mostly cloudy - 18.7 1017.6 0.0
 
Date/Time
WST
Wind Sea
Height
m
Swell Vis
km
Cloud Weather Temp
°C
Press
MSL
hPa
Rain since
9am
mm
Dir  Spd
kts
Gust
kts
Height
m
Period
s
Dir
04/11:30pm S 13 18 - - - - 10 Partly cloudy - 18.9 1017.5 0.0
04/11:00pm SSE 13 17 - - - - 10 Partly cloudy - 19.2 1017.6 0.0
04/10:30pm S 14 19 - - - - 10 Partly cloudy - 19.1 1017.7 0.0
04/10:00pm S 15 19 - - - - 10 Partly cloudy - 19.2 1017.6 0.0
04/09:30pm S 15 20 - - - - 10 Partly cloudy - 19.3 1017.3 0.0
04/09:00pm S 15 21 - - - - 10 Partly cloudy - 19.5 1017.1 0.0
04/08:30pm S 13 17 - - - - 10 Partly cloudy - 19.5 1016.9 0.0
04/08:00pm S 13 17 - - - - 10 - - 19.5 1017.0 0.0
04/07:30pm S 13 19 - - - - 10 - - 19.7 1016.7 0.0
04/07:00pm S 17 22 - - - - 10 - - 20.1 1016.6 0.0
04/06:30pm S 17 23 - - - - 10 Partly cloudy - 21.0 1016.4 0.0
04/06:00pm S 19 23 - - - - 10 Mostly clear - 21.1 1016.0 0.0
04/05:30pm S 17 23 - - - - 10 Partly cloudy - 21.9 1015.8 0.0
04/05:00pm SSW 19 25 - - - - 10 Partly cloudy - 21.9 1015.7 0.0
04/04:30pm S 19 26 - - - - 10 Partly cloudy - 22.7 1015.5 0.0
04/04:00pm SSW 20 27 - - - - 10 - - 22.9 1015.4 0.0
04/03:30pm S 18 25 - - - - 10 Partly cloudy - 23.7 1015.4 0.0
04/03:00pm SSW 20 26 - - - - 10 Mostly clear - 23.2 1015.5 0.0
04/02:30pm S 19 26 - - - - 10 Cloudy - 22.6 1015.5 0.0
04/02:00pm SSW 17 23 - - - - 10 Partly cloudy - 23.9 1015.6 0.0
04/01:30pm SSW 17 23 - - - - 10 Partly cloudy - 23.6 1015.5 0.0
04/01:18pm SSW 16 26 - - - - 10 - - 24.3 1015.5 0.0
04/01:00pm SSW 17 23 - - - - 10 Partly cloudy - 25.4 1015.7 0.0
04/12:30pm SSW 16 22 - - - - 10 - - 23.5 1016.0 0.0
04/12:00pm SSW 16 24 - - - - 10 Mostly clear - 23.6 1016.1 0.0
04/11:30am S 15 24 - - - - 10 Partly cloudy - 23.9 1016.0 0.0
04/11:00am SSW 15 21 - - - - 10 Partly cloudy - 22.7 1016.2 0.0
04/10:30am S 15 20 - - - - 10 - - 22.8 1016.3 0.0
04/10:00am SSW 16 22 - - - - 10 - - 23.3 1016.3 0.0
04/09:30am S 14 19 - - - - 10 - - 21.9 1016.4 0.0
04/09:00am S 14 20 - - - - 10 Mostly clear - 22.0 1016.4 0.0
04/08:30am S 14 21 - - - - 10 Partly cloudy - 21.6 1016.2 0.0
04/08:00am SSW 15 19 - - - - 10 Partly cloudy - 21.3 1016.2 0.0
04/07:30am S 14 19 - - - - 10 Partly cloudy - 20.2 1016.3 0.0
04/07:00am S 15 20 - - - - 10 Cloudy - 20.7 1016.1 0.0
04/06:30am S 12 17 - - - - 10 Cloudy - 20.0 1016.3 0.0
04/06:00am S 12 17 - - - - 10 Cloudy - 19.6 1015.8 0.0
04/05:30am S 13 18 - - - - 10 Cloudy - 19.3 1015.6 0.0
04/05:00am S 13 17 - - - - 10 Cloudy - 18.9 1015.2 0.0
04/04:30am S 13 18 - - - - 10 Partly cloudy - 18.8 1014.8 0.0
04/04:00am S 14 20 - - - - 10 Cloudy - 19.0 1014.2 0.0
04/03:30am S 14 18 - - - - 10 Partly cloudy - 18.9 1013.9 0.0
04/03:00am S 14 19 - - - - 10 Mostly cloudy - 18.9 1013.5 0.0
04/02:30am S 13 19 - - - - 10 Cloudy - 18.8 1013.4 0.0
04/02:00am S 13 19 - - - - 10 Partly cloudy - 18.7 1013.5 0.0
04/01:30am S 12 15 - - - - 10 Partly cloudy - 18.7 1013.7 0.0
04/01:00am S 14 19 - - - - 10 Partly cloudy - 19.1 1013.8 0.0
04/12:30am S 13 17 - - - - 10 Cloudy - 19.2 1014.2 0.0
04/12:00am S 11 15 - - - - 10 Mostly cloudy - 19.2 1014.2 0.0
 
Date/Time
WST
Wind Sea
Height
m
Swell Vis
km
Cloud Weather Temp
°C
Press
MSL
hPa
Rain since
9am
mm
Dir  Spd
kts
Gust
kts
Height
m
Period
s
Dir
03/11:30pm S 11 14 - - - - 10 Cloudy - 19.1 1014.2 0.0
03/11:06pm S 14 18 - - - - 10 Partly cloudy - 19.1 1014.1 0.0
03/11:00pm S 12 18 - - - - 10 Cloudy - 19.2 1014.1 0.0
03/10:30pm S 15 21 - - - - 10 Partly cloudy - 19.4 1014.0 0.0
03/10:00pm SSW 12 17 - - - - 10 Partly cloudy - 19.4 1013.8 0.0
03/09:48pm SSW 14 19 - - - - 10 Partly cloudy - 19.3 1013.8 0.0
03/09:30pm SSW 12 16 - - - - 10 Partly cloudy - 19.0 1013.5 0.0
03/09:22pm SSW 14 18 - - - - 10 Partly cloudy - 19.1 1013.4 0.0
03/09:00pm S 14 17 - - - - 10 Partly cloudy - 19.3 1013.1 0.0
03/08:40pm SSW 13 19 - - - - 10 Partly cloudy - 19.4 1013.1 0.0
03/08:37pm S 13 19 - - - - 10 Partly cloudy - 19.4 1013.0 0.0
03/08:30pm S 12 17 - - - - 10 Partly cloudy - 19.3 1013.0 0.0
03/08:23pm S 10 14 - - - - 10 Partly cloudy - 19.3 1013.0 0.0
03/08:04pm S 13 18 - - - - 10 Partly cloudy - 19.6 1012.8 0.0
03/08:00pm S 13 18 - - - - 10 Partly cloudy - 19.5 1012.8 0.0
03/07:30pm S 17 21 - - - - 10 Partly cloudy - 19.9 1012.8 0.0
03/07:00pm SSW 16 22 - - - - 10 Cloudy - 20.5 1012.5 0.0
03/06:48pm SSW 17 23 - - - - 10 Partly cloudy - 20.6 1012.4 0.0
03/06:30pm SSW 18 22 - - - - 10 - - 21.1 1012.1 0.0
03/06:00pm S 18 21 - - - - 10 - - 21.9 1011.8 0.0
03/05:30pm S 17 22 - - - - 10 - - 22.7 1011.4 0.0
03/05:00pm S 18 24 - - - - 10 - - 23.1 1011.0 0.0
03/04:30pm SSW 19 24 - - - - 10 - - 23.5 1010.7 0.0
03/04:00pm SSW 18 24 - - - - 10 - - 24.3 1010.6 0.0
03/03:30pm SSW 18 22 - - - - 10 - - 25.1 1010.5 0.0
03/03:00pm SSW 17 22 - - - - 10 - - 25.7 1010.3 0.0
03/02:30pm SSW 17 22 - - - - 10 - - 25.8 1010.5 0.0
03/02:00pm S 16 21 - - - - 10 - - 26.0 1010.7 0.0
03/01:30pm SSW 17 20 - - - - 10 - - 25.9 1010.9 0.0
03/01:00pm SSW 15 20 - - - - 10 - - 26.1 1011.2 0.0
03/12:30pm SSW 14 20 - - - - 10 - - 27.3 1011.3 0.0
03/12:00pm S 16 20 - - - - 10 Mostly clear - 25.8 1011.4 0.0
03/11:30am S 15 19 - - - - 10 - - 25.3 1011.7 0.0
03/11:00am S 15 19 - - - - 10 - - 24.6 1012.0 0.0
03/10:30am S 14 19 - - - - 10 - - 24.4 1012.1 0.0
03/10:00am S 14 20 - - - - 10 - - 24.9 1012.2 0.0
03/09:30am S 14 18 - - - - 10 - - 24.2 1012.3 0.0
03/09:00am S 13 17 - - - - 10 - - 23.6 1012.5 0.0
03/08:30am S 15 19 - - - - 10 - - 22.8 1012.6 0.0
03/08:00am SSE 14 18 - - - - 10 - - 21.5 1012.7 0.0
03/07:30am SSE 10 13 - - - - 10 - - 18.8 1013.0 0.0
03/07:00am SSE 10 13 - - - - 10 - - 16.8 1013.1 0.0
03/06:30am SSE 9 14 - - - - 10 - - 15.0 1013.4 0.0
03/06:00am SE 6 7 - - - - 10 - - 13.4 1013.5 0.0
03/05:30am SE 7 8 - - - - 10 - - 12.4 1013.5 0.0
03/05:00am SSE 9 9 - - - - 10 - - 12.3 1013.5 0.0
03/04:30am SSE 5 7 - - - - 10 - - 13.0 1013.5 0.0
03/04:00am SE 6 8 - - - - 10 - - 13.6 1013.6 0.0
03/03:30am SE 7 9 - - - - 10 - - 13.6 1013.6 0.0
03/03:00am SE 7 8 - - - - 10 - - 13.7 1013.5 0.0
03/02:30am SE 7 9 - - - - 10 - - 14.0 1013.4 0.0
03/02:00am SE 5 7 - - - - 10 - - 13.7 1013.5 0.0
03/01:30am SSE 7 8 - - - - 10 - - 14.7 1013.7 0.0
03/01:00am SE 7 8 - - - - 10 - - 15.5 1014.0 0.0
03/12:30am SSE 8 10 - - - - 10 - - 17.0 1014.0 0.0
03/12:00am SSE 12 15 - - - - 10 - - 17.9 1014.0 0.0
 
Date/Time
WST
Wind Sea
Height
m
Swell Vis
km
Cloud Weather Temp
°C
Press
MSL
hPa
Rain since
9am
mm
Dir  Spd
kts
Gust
kts
Height
m
Period
s
Dir
02/11:30pm SSE 11 14 - - - - 10 - - 18.3 1014.3 0.0
02/11:00pm SSE 13 17 - - - - 10 - - 18.7 1014.4 0.0
02/10:30pm SSE 15 20 - - - - 10 - - 18.9 1014.3 0.0
02/10:00pm SSE 15 20 - - - - 10 - - 19.3 1014.6 0.0
02/09:30pm SSE 16 20 - - - - 10 - - 19.5 1014.7 0.0
02/09:00pm SSE 16 21 - - - - 10 - - 19.6 1014.6 0.0
02/08:30pm S 17 23 - - - - 10 - - 19.8 1014.6 0.0
02/08:00pm S 16 22 - - - - 10 - - 19.9 1014.5 0.0
02/07:30pm S 18 24 - - - - 10 - - 20.2 1014.4 0.0
02/07:00pm S 20 27 - - - - 10 - - 20.7 1014.0 0.0
02/06:30pm S 21 29 - - - - 10 - - 21.5 1013.8 0.0
02/06:00pm S 19 24 - - - - 10 - - 22.2 1013.5 0.0
02/05:30pm S 23 28 - - - - 10 - - 22.8 1013.2 0.0
02/05:00pm S 22 27 - - - - 10 - - 24.3 1013.0 0.0
02/04:30pm S 19 26 - - - - 10 - - 24.7 1013.0 0.0
02/04:00pm S 23 28 - - - - 10 - - 25.3 1013.1 0.0
02/03:30pm S 20 25 - - - - 10 - - 26.1 1013.2 0.0
02/03:00pm S 21 25 - - - - 10 - - 26.7 1013.2 0.0
02/02:30pm S 20 25 - - - - 10 - - 27.3 1013.5 0.0
02/02:00pm S 21 24 - - - - 10 - - 27.5 1013.7 0.0
02/01:30pm S 19 22 - - - - 10 - - 27.9 1013.9 0.0
02/01:00pm SSW 18 22 - - - - 10 - - 28.2 1014.2 0.0
02/12:30pm SSW 17 21 - - - - 10 - - 27.9 1014.5 0.0
02/12:00pm S 16 22 - - - - 10 - - 27.4 1014.7 0.0
02/11:30am SSW 15 21 - - - - 10 - - 27.2 1015.0 0.0

Other formats

Comma delimited format used in spreadsheet applications
http://www.bom.gov.au/fwo/IDW60701/IDW60701.94403.axf

JavaScript Object Notation format (JSON) in row-major order
http://www.bom.gov.au/fwo/IDW60701/IDW60701.94403.json

Data quality

Most of these data are generated automatically and are frequently updated. Quality checks on data are not normally performed. It is possible for incorrect values to appear. Refer to information at About Latest Weather Observations and please check the disclaimer before using these data.